Aeroporto :
LOGIN :

Iscrizione | Disclaimer

   EN    FR    IT 

 










Sommario :    VFR   VFR Marginale   IFR   IFR Intensivo   IFR Molto Intensivo
Visibilità : 
Base nubi : 
>= 8 km
>= 3000ft
5 / 8 km
1000 / 3000 ft
1500m / 5 km
500 / 1000 ft
800 / 1500m
200 / 500 ft
< 800m
< 200 ft
Simboli :   Temporali  Nebbia  Neve Forte  Precipitazioni Forti  Vento > 20 kt
SIGMETs :   Varie  Temporali  Ghiacco  Turbolenza  Onda orograficha  Ceneri Vulcaniche






- Altitudine del aeroporto : 39 ft
- Codice IATA : ANR


EBAW - Anvers / Antwerpen Deurne

ULTIMO METAR :
  • 141350Z 25015G30KT 190V300 4000 RA BKN012 BKN030 07/05 Q0992 TEMPO 25020G30KT 4000 SHRA RA

METARs OBSOLETI :
  • 141320Z 21013KT 190V250 9999 -RA SCT020 BKN040 07/05 Q0992 TEMPO 25020G30KT 4000 SHRA RA
  • 141250Z 23014G24KT 200V260 9999 -RA SCT020 BKN040 07/05 Q0992 TEMPO 25020G30KT 4000 SHRA RA
  • 141220Z 22013KT 190V250 9999 -RA FEW015 BKN040 08/03 Q0993 TEMPO 25020G30KT 4000 SHRA RA
  • 141150Z 22011KT 9999 FEW015 08/02 Q0992 TEMPO 25020G30KT
  • 141120Z 24012KT 9999 FEW015 08/02 Q0993 TEMPO 25020G30KT

TAF TAF EBAW
Valido dal 14 a 12 ore il 14 a 21 ore UTC


141110Z 1412/1421 25015G25KT 9999 FEW016TCU SCT035
PROB40
TEMPO 1412/1416 25022G37KT
PROB30
TEMPO 1412/1414 4000 SHRA



MetMap, La meteo Aeronautica in un colpo d'occhio ! - Copyright ORBIFLY Dicembre 2007 - Disclaimer

ORBIFLY MET'MAP TEAM :

Programmazione e sviluppo : Alexandra Zaïnal
Concezione : Baudouin d'Aumeries
Aiuto per la programmazione : Marc-Olivier Méhu
Supporto tecnico e logistico : Manuel Goepfert
Aiuto per la traduzione : Arnaldo La Scala

Contatto : metmap@orbifly.com




FONTI E CREDITI :

   NOAA